(°C)
(°C)
-2°
-1°
-1°
-1°
-0°
-0°
JZ
JZ
JZ
JZ
JZ
JZ
JZ
(km/h)
26-50
26-47
25-46
24-44
23-44
23-43
23-44
(mm)
3
3
0
0
0
0
0
(%)
71
71
50
41
16
15
3

Výška Slnka nad obzorom

/ -27.1°
sun-icon
UV 0
08:12
18:15
Zmenšujúci sa polmesiac (212°)
19:11
11:06

Správy METAR pre lokalitu 55.03°S 82.6°V (UNNT)

Čas Podmienky Teplota/
Rosný bod
Vietor Viditeľnosť Počasie Oblaky Tlak Zmeniť Nespracované
MVFR 5°C / 4°C 220º 17kt >10km Light Showers Rain 3.00mm precipitation Vertical Visibility of 0ft.
Overcast 2400ft
1015 No Significant change. Runway 25: Wet or puddles, 51-100% contamination with 1mm, friction coefficient 0.50. Runway 16: Wet or puddles, 51-100% contamination with 1mm, friction coefficient 0.55. UNNT 231400Z 22009MPS 9999 -SHRA BKN010 OVC024CB 05/04 Q1015 R25/290150 R16/290155 NOSIG RMK QFE751/1001
MVFR 5°C / 4°C 210º 17kt Gust 27kt >10km Light Showers Rain 3.00mm precipitation Vertical Visibility of 0ft.
Overcast 2500ft
1015 No Significant change. Runway 25: Wet or puddles, 51-100% contamination with 1mm, friction coefficient 0.50. Runway 16: Wet or puddles, 51-100% contamination with 1mm, friction coefficient 0.55. UNNT 231330Z 21009G14MPS 9999 -SHRA BKN010 OVC025CB 05/04 Q1015 R25/290150 R16/290155 NOSIG RMK QFE751/1002
MVFR 4°C / 4°C 210º 17kt 5000m Light Showers Rain 3.00mm precipitation Vertical Visibility of 0ft.
Overcast 2100ft
1015 No Significant change. Runway 25: Wet or puddles, 51-100% contamination with 1mm, friction coefficient 0.55. Runway 16: Wet or puddles, 51-100% contamination with 1mm, friction coefficient 0.55. UNNT 231300Z 21009MPS 5000 -SHRA BKN011 OVC021CB 04/04 Q1015 R25/290155 R16/290155 NOSIG RMK QFE751/1002
MVFR 4°C / 3°C 220º 19kt Gust 31kt 9000m - Broken Clouds 1200ft
Overcast 2000ft
1015 No Significant change. Runway 25: Wet or puddles, 51-100% contamination with 1mm, friction coefficient 0.55. Runway 16: Wet or puddles, 51-100% contamination with 1mm, friction coefficient 0.55. UNNT 231230Z 22010G16MPS 9000 BKN012 OVC020CB 04/03 Q1015 R25/290155 R16/290155 NOSIG RMK QFE751/1002
MVFR 4°C / 2°C 210º 16kt Gust 25kt. Wind Shear present on Runway 25. >10km - Broken Clouds 1300ft
Overcast 2000ft
1015 No Significant change. Runway 25: Wet or puddles, 51-100% contamination with 1mm, friction coefficient 0.55. Runway 16: Wet or puddles, 51-100% contamination with 1mm, friction coefficient 0.55. UNNT 231200Z 21008G13MPS 9999 BKN013 OVC020CB 04/02 Q1015 WS R25 R25/290155 R16/290155 NOSIG RMK QFE751/1002
MVFR 4°C / 2°C 200º 16kt >10km Light Showers Rain 3.00mm precipitation Vertical Visibility of 0ft. 1015 No Significant change. Runway 25: Wet or puddles, 51-100% contamination with 1mm, friction coefficient 0.55. Runway 16: Wet or puddles, 51-100% contamination with 1mm, friction coefficient 0.55. UNNT 231130Z 20008MPS 9999 -SHRA OVC013CB 04/02 Q1015 R25/290155 R16/290155 NOSIG RMK QFE751/1001
MVFR 4°C / 2°C 200º 16kt Gust 25kt >10km Light Showers Rain 3.00mm precipitation Vertical Visibility of 0ft. 1015 No Significant change. Runway 25: Wet or puddles, 51-100% contamination with 1mm, friction coefficient 0.55. Runway 16: Wet or puddles, 51-100% contamination with 1mm, friction coefficient 0.55. UNNT 231100Z 20008G13MPS 9999 -SHRA OVC015CB 04/02 Q1015 R25/290155 R16/290155 NOSIG RMK QFE751/1002
MVFR 4°C / 2°C 190º 14kt >10km - Overcast 1500ft 1015 No Significant change. Runway 25: Wet or puddles, 51-100% contamination with 1mm, friction coefficient 0.55. Runway 16: Wet or puddles, 51-100% contamination with 1mm, friction coefficient 0.55. UNNT 231030Z 19007MPS 9999 OVC015CB 04/02 Q1015 R25/290155 R16/290155 NOSIG RMK QFE752/1002
MVFR 4°C / 2°C 210º 17kt Gust 27kt 9000m Light Rain 1.00mm precipitation Vertical Visibility of 0ft. 1016 No Significant change. Runway 25: Wet or puddles, 51-100% contamination with 1mm, friction coefficient 0.55. Runway 16: Wet or puddles, 51-100% contamination with 1mm, friction coefficient 0.55. UNNT 231000Z 21009G14MPS 9000 -RA OVC014 04/02 Q1016 R25/290155 R16/290155 NOSIG RMK QFE752/1002
MVFR 4°C / 1°C 200º 17kt Gust 35kt >10km Light Rain 1.00mm precipitation Vertical Visibility of 0ft. 1015 No Significant change. Runway 25: Damp, 51-100% contamination with <1mm, friction coefficient 0.60. Runway 16: Damp, 51-100% contamination with <1mm, friction coefficient 0.60. UNNT 230930Z 20009G18MPS 9999 -RA OVC016 04/01 Q1015 R25/190060 R16/190060 NOSIG RMK QFE752/1002
MVFR 4°C / 0°C 200º 19kt Gust 29kt >10km Light Rain 1.00mm precipitation Vertical Visibility of 0ft. 1016 No Significant change. Runway 25: Damp, 51-100% contamination with <1mm, friction coefficient 0.60. Runway 16: Damp, 51-100% contamination with <1mm, friction coefficient 0.60. UNNT 230900Z 20010G15MPS 9999 -RA OVC021 04/00 Q1016 R25/190060 R16/190060 NOSIG RMK QFE752/1002
MVFR 5°C / 0°C 200º 17kt >10km Light Rain 1.00mm precipitation Vertical Visibility of 0ft. 1016 No Significant change. Runway 25: Damp, 51-100% contamination with <1mm, friction coefficient 0.60. Runway 16: Damp, 51-100% contamination with <1mm, friction coefficient 0.60. UNNT 230830Z 20009MPS 9999 -RA OVC024 05/M00 Q1016 R25/190060 R16/190060 NOSIG RMK QFE752/1003
MVFR 5°C / -1°C 200º 17kt >10km Light Rain 1.00mm precipitation Vertical Visibility of 0ft. 1016 No Significant change. Runway 25: Clear and dry, 51-100% contamination with <1mm, friction coefficient 0.70. Runway 16: Clear and dry, 51-100% contamination with <1mm, friction coefficient 0.70. UNNT 230800Z 20009MPS 9999 -RA OVC027 05/M01 Q1016 R25/090070 R16/090070 NOSIG RMK QFE752/1003
MVFR 5°C / -1°C 200º 16kt >10km - Overcast 2700ft 1017 No Significant change. Runway 25: Clear and dry, 51-100% contamination with <1mm, friction coefficient 0.70. Runway 16: Clear and dry, 51-100% contamination with <1mm, friction coefficient 0.70. UNNT 230730Z 20008MPS 9999 OVC027 05/M01 Q1017 R25/090070 R16/090070 NOSIG RMK QFE752/1003
MVFR 5°C / -1°C 200º 16kt >10km - Overcast 2400ft 1017 No Significant change. Runway 25: Clear and dry, 51-100% contamination with <1mm, friction coefficient 0.70. Runway 16: Clear and dry, 51-100% contamination with <1mm, friction coefficient 0.70. UNNT 230700Z 20008MPS 9999 OVC024 05/M01 Q1017 R25/090070 R16/090070 NOSIG RMK QFE753/1004
MVFR 5°C / -1°C 210º 17kt Gust 29kt >10km Light Rain 1.00mm precipitation Vertical Visibility of 0ft. 1018 No Significant change. Runway 25: Clear and dry, 51-100% contamination with <1mm, friction coefficient 0.70. Runway 16: Clear and dry, 51-100% contamination with <1mm, friction coefficient 0.70. UNNT 230630Z 21009G15MPS 9999 -RA OVC026 05/M01 Q1018 R25/090070 R16/090070 NOSIG RMK QFE753/1004
MVFR 5°C / -1°C 210º 17kt Gust 27kt >10km - Overcast 2700ft 1018 No Significant change. Runway 25: Clear and dry, 51-100% contamination with <1mm, friction coefficient 0.70. Runway 16: Clear and dry, 51-100% contamination with <1mm, friction coefficient 0.70. UNNT 230600Z 21009G14MPS 9999 OVC027 05/M01 Q1018 R25/090070 R16/090070 NOSIG RMK QFE753/1005
MVFR 5°C / -2°C 210º 17kt >10km - Overcast 2700ft 1018 No Significant change. Runway 25: Clear and dry, 51-100% contamination with <1mm, friction coefficient 0.70. Runway 16: Clear and dry, 51-100% contamination with <1mm, friction coefficient 0.70. UNNT 230530Z 21009MPS 9999 OVC027 05/M02 Q1018 R25/090070 R16/090070 NOSIG RMK QFE754/1005
MVFR 5°C / -1°C 200º 17kt Gust 29kt >10km - Overcast 2500ft 1018 No Significant change. Runway 25: Clear and dry, 51-100% contamination with <1mm, friction coefficient 0.70. Runway 16: Clear and dry, 51-100% contamination with <1mm, friction coefficient 0.70. UNNT 230500Z 20009G15MPS 9999 OVC025 05/M01 Q1018 R25/090070 R16/090070 NOSIG RMK QFE754/1005
MVFR 4°C / -1°C 200º 16kt >10km - Overcast 2500ft 1019 No Significant change. Runway 25: Clear and dry, 51-100% contamination with <1mm, friction coefficient 0.70. Runway 16: Clear and dry, 51-100% contamination with <1mm, friction coefficient 0.70. UNNT 230430Z 20008MPS 9999 OVC025 04/M01 Q1019 R25/090070 R16/090070 NOSIG RMK QFE754/1005
MVFR 4°C / -2°C 200º 17kt >10km - Overcast 2600ft 1019 No Significant change. Runway 25: Clear and dry, 51-100% contamination with <1mm, friction coefficient 0.70. Runway 16: Clear and dry, 51-100% contamination with <1mm, friction coefficient 0.70. UNNT 230400Z 20009MPS 9999 OVC026 04/M02 Q1019 R25/090070 R16/090070 NOSIG RMK QFE754/1006
MVFR 4°C / -2°C 200º 16kt Gust 25kt >10km - Overcast 2800ft 1019 No Significant change. Runway 25: Clear and dry, 51-100% contamination with <1mm, friction coefficient 0.70. Runway 16: Clear and dry, 51-100% contamination with <1mm, friction coefficient 0.70. UNNT 230330Z 20008G13MPS 9999 OVC028 04/M02 Q1019 R25/090070 R16/090070 NOSIG RMK QFE754/1006
MVFR 4°C / -2°C 200º 14kt >10km - Overcast 2900ft 1019 No Significant change. Runway 25: Clear and dry, 51-100% contamination with <1mm, friction coefficient 0.70. Runway 16: Clear and dry, 51-100% contamination with <1mm, friction coefficient 0.70. UNNT 230300Z 20007MPS 9999 OVC029 04/M02 Q1019 R25/090070 R16/090070 NOSIG RMK QFE755/1006
MVFR 4°C / -3°C 200º 14kt >10km - Overcast 2800ft 1019 No Significant change. Runway 25: Clear and dry, 51-100% contamination with <1mm, friction coefficient 0.70. Runway 16: Clear and dry, 51-100% contamination with <1mm, friction coefficient 0.70. UNNT 230230Z 20007MPS 9999 OVC028 04/M03 Q1019 R25/090070 R16/090070 NOSIG RMK QFE755/1006

MVFR

5°C / 4°C

[Viac]
Vietor 220º 17kt
Viditeľnosť >10km
Počasie Light Showers Rain 3.00mm precipitation
Oblaky Vertical Visibility of 0ft.
Overcast 2400ft
Tlak 1015
Zmeniť No Significant change. Runway 25: Wet or puddles, 51-100% contamination with 1mm, friction coefficient 0.50. Runway 16: Wet or puddles, 51-100% contamination with 1mm, friction coefficient 0.55.
Nespracované UNNT 231400Z 22009MPS 9999 -SHRA BKN010 OVC024CB 05/04 Q1015 R25/290150 R16/290155 NOSIG RMK QFE751/1001

MVFR

5°C / 4°C

[Viac]
Vietor 210º 17kt Gust 27kt
Viditeľnosť >10km
Počasie Light Showers Rain 3.00mm precipitation
Oblaky Vertical Visibility of 0ft.
Overcast 2500ft
Tlak 1015
Zmeniť No Significant change. Runway 25: Wet or puddles, 51-100% contamination with 1mm, friction coefficient 0.50. Runway 16: Wet or puddles, 51-100% contamination with 1mm, friction coefficient 0.55.
Nespracované UNNT 231330Z 21009G14MPS 9999 -SHRA BKN010 OVC025CB 05/04 Q1015 R25/290150 R16/290155 NOSIG RMK QFE751/1002

MVFR

4°C / 4°C

[Viac]
Vietor 210º 17kt
Viditeľnosť 5000m
Počasie Light Showers Rain 3.00mm precipitation
Oblaky Vertical Visibility of 0ft.
Overcast 2100ft
Tlak 1015
Zmeniť No Significant change. Runway 25: Wet or puddles, 51-100% contamination with 1mm, friction coefficient 0.55. Runway 16: Wet or puddles, 51-100% contamination with 1mm, friction coefficient 0.55.
Nespracované UNNT 231300Z 21009MPS 5000 -SHRA BKN011 OVC021CB 04/04 Q1015 R25/290155 R16/290155 NOSIG RMK QFE751/1002

MVFR

4°C / 3°C

[Viac]
Vietor 220º 19kt Gust 31kt
Viditeľnosť 9000m
Počasie -
Oblaky Broken Clouds 1200ft
Overcast 2000ft
Tlak 1015
Zmeniť No Significant change. Runway 25: Wet or puddles, 51-100% contamination with 1mm, friction coefficient 0.55. Runway 16: Wet or puddles, 51-100% contamination with 1mm, friction coefficient 0.55.
Nespracované UNNT 231230Z 22010G16MPS 9000 BKN012 OVC020CB 04/03 Q1015 R25/290155 R16/290155 NOSIG RMK QFE751/1002

MVFR

4°C / 2°C

[Viac]
Vietor 210º 16kt Gust 25kt. Wind Shear present on Runway 25.
Viditeľnosť >10km
Počasie -
Oblaky Broken Clouds 1300ft
Overcast 2000ft
Tlak 1015
Zmeniť No Significant change. Runway 25: Wet or puddles, 51-100% contamination with 1mm, friction coefficient 0.55. Runway 16: Wet or puddles, 51-100% contamination with 1mm, friction coefficient 0.55.
Nespracované UNNT 231200Z 21008G13MPS 9999 BKN013 OVC020CB 04/02 Q1015 WS R25 R25/290155 R16/290155 NOSIG RMK QFE751/1002

MVFR

4°C / 2°C

[Viac]
Vietor 200º 16kt
Viditeľnosť >10km
Počasie Light Showers Rain 3.00mm precipitation
Oblaky Vertical Visibility of 0ft.
Tlak 1015
Zmeniť No Significant change. Runway 25: Wet or puddles, 51-100% contamination with 1mm, friction coefficient 0.55. Runway 16: Wet or puddles, 51-100% contamination with 1mm, friction coefficient 0.55.
Nespracované UNNT 231130Z 20008MPS 9999 -SHRA OVC013CB 04/02 Q1015 R25/290155 R16/290155 NOSIG RMK QFE751/1001

MVFR

4°C / 2°C

[Viac]
Vietor 200º 16kt Gust 25kt
Viditeľnosť >10km
Počasie Light Showers Rain 3.00mm precipitation
Oblaky Vertical Visibility of 0ft.
Tlak 1015
Zmeniť No Significant change. Runway 25: Wet or puddles, 51-100% contamination with 1mm, friction coefficient 0.55. Runway 16: Wet or puddles, 51-100% contamination with 1mm, friction coefficient 0.55.
Nespracované UNNT 231100Z 20008G13MPS 9999 -SHRA OVC015CB 04/02 Q1015 R25/290155 R16/290155 NOSIG RMK QFE751/1002

MVFR

4°C / 2°C

[Viac]
Vietor 190º 14kt
Viditeľnosť >10km
Počasie -
Oblaky Overcast 1500ft
Tlak 1015
Zmeniť No Significant change. Runway 25: Wet or puddles, 51-100% contamination with 1mm, friction coefficient 0.55. Runway 16: Wet or puddles, 51-100% contamination with 1mm, friction coefficient 0.55.
Nespracované UNNT 231030Z 19007MPS 9999 OVC015CB 04/02 Q1015 R25/290155 R16/290155 NOSIG RMK QFE752/1002

MVFR

4°C / 2°C

[Viac]
Vietor 210º 17kt Gust 27kt
Viditeľnosť 9000m
Počasie Light Rain 1.00mm precipitation
Oblaky Vertical Visibility of 0ft.
Tlak 1016
Zmeniť No Significant change. Runway 25: Wet or puddles, 51-100% contamination with 1mm, friction coefficient 0.55. Runway 16: Wet or puddles, 51-100% contamination with 1mm, friction coefficient 0.55.
Nespracované UNNT 231000Z 21009G14MPS 9000 -RA OVC014 04/02 Q1016 R25/290155 R16/290155 NOSIG RMK QFE752/1002

MVFR

4°C / 1°C

[Viac]
Vietor 200º 17kt Gust 35kt
Viditeľnosť >10km
Počasie Light Rain 1.00mm precipitation
Oblaky Vertical Visibility of 0ft.
Tlak 1015
Zmeniť No Significant change. Runway 25: Damp, 51-100% contamination with <1mm, friction coefficient 0.60. Runway 16: Damp, 51-100% contamination with <1mm, friction coefficient 0.60.
Nespracované UNNT 230930Z 20009G18MPS 9999 -RA OVC016 04/01 Q1015 R25/190060 R16/190060 NOSIG RMK QFE752/1002

MVFR

4°C / 0°C

[Viac]
Vietor 200º 19kt Gust 29kt
Viditeľnosť >10km
Počasie Light Rain 1.00mm precipitation
Oblaky Vertical Visibility of 0ft.
Tlak 1016
Zmeniť No Significant change. Runway 25: Damp, 51-100% contamination with <1mm, friction coefficient 0.60. Runway 16: Damp, 51-100% contamination with <1mm, friction coefficient 0.60.
Nespracované UNNT 230900Z 20010G15MPS 9999 -RA OVC021 04/00 Q1016 R25/190060 R16/190060 NOSIG RMK QFE752/1002

MVFR

5°C / 0°C

[Viac]
Vietor 200º 17kt
Viditeľnosť >10km
Počasie Light Rain 1.00mm precipitation
Oblaky Vertical Visibility of 0ft.
Tlak 1016
Zmeniť No Significant change. Runway 25: Damp, 51-100% contamination with <1mm, friction coefficient 0.60. Runway 16: Damp, 51-100% contamination with <1mm, friction coefficient 0.60.
Nespracované UNNT 230830Z 20009MPS 9999 -RA OVC024 05/M00 Q1016 R25/190060 R16/190060 NOSIG RMK QFE752/1003

MVFR

5°C / -1°C

[Viac]
Vietor 200º 17kt
Viditeľnosť >10km
Počasie Light Rain 1.00mm precipitation
Oblaky Vertical Visibility of 0ft.
Tlak 1016
Zmeniť No Significant change. Runway 25: Clear and dry, 51-100% contamination with <1mm, friction coefficient 0.70. Runway 16: Clear and dry, 51-100% contamination with <1mm, friction coefficient 0.70.
Nespracované UNNT 230800Z 20009MPS 9999 -RA OVC027 05/M01 Q1016 R25/090070 R16/090070 NOSIG RMK QFE752/1003

MVFR

5°C / -1°C

[Viac]
Vietor 200º 16kt
Viditeľnosť >10km
Počasie -
Oblaky Overcast 2700ft
Tlak 1017
Zmeniť No Significant change. Runway 25: Clear and dry, 51-100% contamination with <1mm, friction coefficient 0.70. Runway 16: Clear and dry, 51-100% contamination with <1mm, friction coefficient 0.70.
Nespracované UNNT 230730Z 20008MPS 9999 OVC027 05/M01 Q1017 R25/090070 R16/090070 NOSIG RMK QFE752/1003

MVFR

5°C / -1°C

[Viac]
Vietor 200º 16kt
Viditeľnosť >10km
Počasie -
Oblaky Overcast 2400ft
Tlak 1017
Zmeniť No Significant change. Runway 25: Clear and dry, 51-100% contamination with <1mm, friction coefficient 0.70. Runway 16: Clear and dry, 51-100% contamination with <1mm, friction coefficient 0.70.
Nespracované UNNT 230700Z 20008MPS 9999 OVC024 05/M01 Q1017 R25/090070 R16/090070 NOSIG RMK QFE753/1004

MVFR

5°C / -1°C

[Viac]
Vietor 210º 17kt Gust 29kt
Viditeľnosť >10km
Počasie Light Rain 1.00mm precipitation
Oblaky Vertical Visibility of 0ft.
Tlak 1018
Zmeniť No Significant change. Runway 25: Clear and dry, 51-100% contamination with <1mm, friction coefficient 0.70. Runway 16: Clear and dry, 51-100% contamination with <1mm, friction coefficient 0.70.
Nespracované UNNT 230630Z 21009G15MPS 9999 -RA OVC026 05/M01 Q1018 R25/090070 R16/090070 NOSIG RMK QFE753/1004

MVFR

5°C / -1°C

[Viac]
Vietor 210º 17kt Gust 27kt
Viditeľnosť >10km
Počasie -
Oblaky Overcast 2700ft
Tlak 1018
Zmeniť No Significant change. Runway 25: Clear and dry, 51-100% contamination with <1mm, friction coefficient 0.70. Runway 16: Clear and dry, 51-100% contamination with <1mm, friction coefficient 0.70.
Nespracované UNNT 230600Z 21009G14MPS 9999 OVC027 05/M01 Q1018 R25/090070 R16/090070 NOSIG RMK QFE753/1005

MVFR

5°C / -2°C

[Viac]
Vietor 210º 17kt
Viditeľnosť >10km
Počasie -
Oblaky Overcast 2700ft
Tlak 1018
Zmeniť No Significant change. Runway 25: Clear and dry, 51-100% contamination with <1mm, friction coefficient 0.70. Runway 16: Clear and dry, 51-100% contamination with <1mm, friction coefficient 0.70.
Nespracované UNNT 230530Z 21009MPS 9999 OVC027 05/M02 Q1018 R25/090070 R16/090070 NOSIG RMK QFE754/1005

MVFR

5°C / -1°C

[Viac]
Vietor 200º 17kt Gust 29kt
Viditeľnosť >10km
Počasie -
Oblaky Overcast 2500ft
Tlak 1018
Zmeniť No Significant change. Runway 25: Clear and dry, 51-100% contamination with <1mm, friction coefficient 0.70. Runway 16: Clear and dry, 51-100% contamination with <1mm, friction coefficient 0.70.
Nespracované UNNT 230500Z 20009G15MPS 9999 OVC025 05/M01 Q1018 R25/090070 R16/090070 NOSIG RMK QFE754/1005

MVFR

4°C / -1°C

[Viac]
Vietor 200º 16kt
Viditeľnosť >10km
Počasie -
Oblaky Overcast 2500ft
Tlak 1019
Zmeniť No Significant change. Runway 25: Clear and dry, 51-100% contamination with <1mm, friction coefficient 0.70. Runway 16: Clear and dry, 51-100% contamination with <1mm, friction coefficient 0.70.
Nespracované UNNT 230430Z 20008MPS 9999 OVC025 04/M01 Q1019 R25/090070 R16/090070 NOSIG RMK QFE754/1005

MVFR

4°C / -2°C

[Viac]
Vietor 200º 17kt
Viditeľnosť >10km
Počasie -
Oblaky Overcast 2600ft
Tlak 1019
Zmeniť No Significant change. Runway 25: Clear and dry, 51-100% contamination with <1mm, friction coefficient 0.70. Runway 16: Clear and dry, 51-100% contamination with <1mm, friction coefficient 0.70.
Nespracované UNNT 230400Z 20009MPS 9999 OVC026 04/M02 Q1019 R25/090070 R16/090070 NOSIG RMK QFE754/1006

MVFR

4°C / -2°C

[Viac]
Vietor 200º 16kt Gust 25kt
Viditeľnosť >10km
Počasie -
Oblaky Overcast 2800ft
Tlak 1019
Zmeniť No Significant change. Runway 25: Clear and dry, 51-100% contamination with <1mm, friction coefficient 0.70. Runway 16: Clear and dry, 51-100% contamination with <1mm, friction coefficient 0.70.
Nespracované UNNT 230330Z 20008G13MPS 9999 OVC028 04/M02 Q1019 R25/090070 R16/090070 NOSIG RMK QFE754/1006

MVFR

4°C / -2°C

[Viac]
Vietor 200º 14kt
Viditeľnosť >10km
Počasie -
Oblaky Overcast 2900ft
Tlak 1019
Zmeniť No Significant change. Runway 25: Clear and dry, 51-100% contamination with <1mm, friction coefficient 0.70. Runway 16: Clear and dry, 51-100% contamination with <1mm, friction coefficient 0.70.
Nespracované UNNT 230300Z 20007MPS 9999 OVC029 04/M02 Q1019 R25/090070 R16/090070 NOSIG RMK QFE755/1006

MVFR

4°C / -3°C

[Viac]
Vietor 200º 14kt
Viditeľnosť >10km
Počasie -
Oblaky Overcast 2800ft
Tlak 1019
Zmeniť No Significant change. Runway 25: Clear and dry, 51-100% contamination with <1mm, friction coefficient 0.70. Runway 16: Clear and dry, 51-100% contamination with <1mm, friction coefficient 0.70.
Nespracované UNNT 230230Z 20007MPS 9999 OVC028 04/M03 Q1019 R25/090070 R16/090070 NOSIG RMK QFE755/1006

Správy TAF pre lokalitu 55.03°S 82.6°V (UNNT)

From till


From till Wind 210º 16kt. Gust 29kt. Visibility 8000m. Light Showers Rain . Broken Clouds 2000ft.
Temporarly from till Wind 220º 25kt. Gust 39kt. Broken Clouds 1000ft.
Becoming from till Wind 210º 16kt. Gust 29kt. Visibility 8000m. Light Showers Rain . Broken Clouds 3900ft.
Becoming from till Wind 230º 10kt. Gust 23kt. Visibility 8000m. Light Showers Rain . Broken Clouds 3900ft.

Nespracované: TAF UNNT 231100Z 2312/2412 21008G15MPS 8000 -SHRA BKN020CB TEMPO 2312/2318 22013G20MPS BKN010CB BECMG 2318/2321 BKN039CB BECMG 2403/2406 23005G12MPS

Aktuálne satelitné snímky a snímky zrážok pre lokalitu 55.03°S 82.6°V

Značka polohy je umiestnená na55.03°S 82.6°V. [Viac]

Satelitné snímky zhotovované v reálnom čase využívajú viditeľné svetlo počas dňa a infračervené žiarenie počas noci. Vzhľadom na to, že infračervené žiarenie zisťuje teplotné rozdiely, snímka v noci nie je tmavá. Nízke oblaky a hmlu je, žiaľ, ťažké odlíšiť od prízemných teplôt, preto môžu byť počas noci takmer neviditeľné. Meteosat satelitné snímky pre Európu sú aktualizované v reálnom čase každých 5 minút. Snímky z GOES-16/GOES-17 (Severná a Južná Amerika) a Himawari (Ázia) sú aktualizované každých 10 minút.

Copyright 2021 EUMETSAT / meteoblue. / Copyright 2021 meteoblue

Radar a krátkodobá predpoveď zrážok pre 55.03°S 82.6°V

Mrholenie
Slabý
Mierne
Ťažké
Veľmi ťažké
Krúpy

Značka polohy je umiestnená na 55.03°S 82.6°V. Táto animácia ukazuje zrážky pozorované radarom za poslednú hodinu a tiež 1h predpoveď. Mrholenie alebo slabé sneženie môže byť pre radar neviditeľné. Intenzita zrážok je farebne označená od svetlomodrej po oranžovú.